Shin Mei Maru — JG5617 — position and weather

sailwx.info

Track history (hours):
 
Tides and Currents Weather Stations Pressure Air Temp Water Temp Dewpoint Dewpoint Depression Visibility Wind Speed Wind Dir Waves Ship Positions

Shin Mei Maru

Last reported at 2015-Mar-25 18:32 UTC. Time now 2015-Mar-28 11:07 UTC.
Position N 35°42' E 141°01'.

Length 160 m; draft 6.8 m.

Type: Cargo ship. MMSI: 431100922.

Date/timePositionNaut miles runAvg speedWind from/ knotsBaromVisibWave heightAir tempDewpointWater temp
2015-Mar-25 18:32N 35°42' E 141°01'1919.1
2015-Mar-25 17:33N 35°26' E 140°47'1919.4
2015-Mar-25 16:33N 35°11' E 140°33'2020.4
2015-Mar-25 15:33N 34°57' E 140°15'2120.0
2015-Mar-25 14:31N 34°50' E 139°51'1717.8
2015-Mar-25 13:33N 35°06' E 139°44'1414.1
2015-Mar-25 12:34N 35°20' E 139°43'1515.0
2015-Mar-25 11:33N 35°34' E 139°49'5 4.2
2015-Mar-25 10:16N 35°38' E 139°46'0 0.0
2015-Mar-25 09:33N 35°38' E 139°46'0 0.0
2015-Mar-25 08:25N 35°38' E 139°46'0 0.0
2015-Mar-25 07:34N 35°38' E 139°46'0 0.0
2015-Mar-25 06:33N 35°38' E 139°46'5 5.3
2015-Mar-25 05:34N 35°34' E 139°50'1413.7
2015-Mar-25 04:33N 35°21' E 139°45'1313.3
2015-Mar-25 03:33N 35°07' E 139°46'24817.5
2015-Mar-24 13:25N 33°55' E 134°59'1820.3
2015-Mar-24 12:33N 34°12' E 134°58'1918.6
2015-Mar-24 11:33N 34°28' E 135°09'1515.2
2015-Mar-24 10:33N 34°37' E 135°25'0 0.1
2015-Mar-24 09:30N 34°37' E 135°25'0 0.0
2015-Mar-24 08:30N 34°37' E 135°25'0 0.0
2015-Mar-24 07:30N 34°37' E 135°25'0 0.0
2015-Mar-24 06:30N 34°37' E 135°25'0 0.0
2015-Mar-24 05:24N 34°37' E 135°25'0 0.0
2015-Mar-24 04:30N 34°37' E 135°25'0 0.0
2015-Mar-24 03:30N 34°37' E 135°25'0 0.0
2015-Mar-24 02:30N 34°37' E 135°25'0 0.0
2015-Mar-24 01:33N 34°37' E 135°25'1312.6
2015-Mar-24 00:33N 34°30' E 135°12'2019.6
2015-Mar-23 23:34N 34°14' E 134°58'2120.1
2015-Mar-23 22:30N 33°53' E 134°58'23016.4
2015-Mar-23 08:25N 34°56' E 139°27'1619.0
2015-Mar-23 07:33N 35°06' E 139°43'1413.8
2015-Mar-23 06:34N 35°20' E 139°43'1514.9
2015-Mar-23 05:33N 35°34' E 139°50'6 5.1
2015-Mar-23 04:28N 35°38' E 139°46'0 0.0
2015-Mar-23 03:28N 35°38' E 139°46'0 0.0
2015-Mar-23 02:28N 35°38' E 139°46'0 0.0
2015-Mar-23 01:31N 35°38' E 139°46'0 0.0
2015-Mar-23 00:28N 35°38' E 139°46'0 0.0
2015-Mar-22 23:28N 35°38' E 139°46'0 0.0
2015-Mar-22 22:29N 35°38' E 139°46'6 6.0
2015-Mar-22 21:33N 35°34' E 139°50'1313.0
2015-Mar-22 20:34N 35°21' E 139°45'1212.3
2015-Mar-22 19:34N 35°09' E 139°47'1514.7
2015-Mar-22 18:33N 34°54' E 139°45'1515.4
2015-Mar-22 17:33N 34°54' E 140°04'1818.3
2015-Mar-22 16:33N 35°04' E 140°22'1818.0
2015-Mar-22 15:32N 35°17' E 140°38'1818.5
2015-Mar-22 14:33N 35°32' E 140°51'1918.7
2015-Mar-22 13:33N 35°49' E 141°01'  
2015-Mar-18 12:33N 34°54' E 139°46'1918.7
2015-Mar-18 11:33N 35°13' E 139°46'1312.9
2015-Mar-18 10:33N 35°26' E 139°45'1211.9
2015-Mar-18 09:33N 35°38' E 139°46'0 0.1
2015-Mar-18 06:18N 35°38' E 139°46'0 0.0
2015-Mar-18 04:09N 35°38' E 139°46'711.1
2015-Mar-18 03:34N 35°33' E 139°51'1414.5
2015-Mar-18 02:34N 35°20' E 139°44'1514.5
2015-Mar-18 01:33N 35°05' E 139°45'24517.5
2015-Mar-17 11:31N 33°58' E 134°58'1920.1
2015-Mar-17 10:33N 34°18' E 134°58'1919.0
2015-Mar-17 09:33N 34°31' E 135°14'1010.2
2015-Mar-17 08:33N 34°37' E 135°25'0 0.0
2015-Mar-17 07:21N 34°37' E 135°25'0 0.0
2015-Mar-17 06:03N 34°37' E 135°25'0 0.0
2015-Mar-17 05:21N 34°37' E 135°25'0 0.0
2015-Mar-17 04:27N 34°37' E 135°25'0 0.0
2015-Mar-17 03:33N 34°37' E 135°25'0 0.0
2015-Mar-17 02:33N 34°37' E 135°25'0 0.0
2015-Mar-17 01:33N 34°37' E 135°25'0 0.0
2015-Mar-17 00:33N 34°37' E 135°25'1211.9
2015-Mar-16 23:33N 34°30' E 135°13'1616.5
2015-Mar-16 22:34N 34°18' E 134°59'1716.6
2015-Mar-16 21:33N 34°01' E 134°59'23115.4
2015-Mar-16 06:33N 34°59' E 139°30'1918.6
2015-Mar-16 05:33N 35°13' E 139°46'1212.5
2015-Mar-16 04:33N 35°25' E 139°44'1211.7
2015-Mar-16 03:33N 35°37' E 139°46'1 0.3
2015-Mar-15 22:29N 35°38' E 139°46'6 6.6
2015-Mar-15 21:33N 35°33' E 139°51'1312.6
2015-Mar-15 20:33N 35°21' E 139°45'1111.4
2015-Mar-15 19:33N 35°10' E 139°47'  
Track history (hours):
 
Tides and Currents Weather Stations Pressure Air Temp Water Temp Dewpoint Dewpoint Depression Visibility Wind Speed Wind Dir Waves Ship Positions

Shin Mei Maru

Last reported at 2015-Mar-25 18:32 UTC. Time now 2015-Mar-28 11:07 UTC.
Position N 35°42' E 141°01'.

Length 160 m; draft 6.8 m.

Type: Cargo ship. MMSI: 431100922.

Date/timePositionNaut miles runAvg speedWind from/ knotsBaromVisibWave heightAir tempDewpointWater temp
2015-Mar-25 18:32N 35°42' E 141°01'1919.1
2015-Mar-25 17:33N 35°26' E 140°47'1919.4
2015-Mar-25 16:33N 35°11' E 140°33'2020.4
2015-Mar-25 15:33N 34°57' E 140°15'2120.0
2015-Mar-25 14:31N 34°50' E 139°51'1717.8
2015-Mar-25 13:33N 35°06' E 139°44'1414.1
2015-Mar-25 12:34N 35°20' E 139°43'1515.0
2015-Mar-25 11:33N 35°34' E 139°49'5 4.2
2015-Mar-25 10:16N 35°38' E 139°46'0 0.0
2015-Mar-25 09:33N 35°38' E 139°46'0 0.0
2015-Mar-25 08:25N 35°38' E 139°46'0 0.0
2015-Mar-25 07:34N 35°38' E 139°46'0 0.0
2015-Mar-25 06:33N 35°38' E 139°46'5 5.3
2015-Mar-25 05:34N 35°34' E 139°50'1413.7
2015-Mar-25 04:33N 35°21' E 139°45'1313.3
2015-Mar-25 03:33N 35°07' E 139°46'24817.5
2015-Mar-24 13:25N 33°55' E 134°59'1820.3
2015-Mar-24 12:33N 34°12' E 134°58'1918.6
2015-Mar-24 11:33N 34°28' E 135°09'1515.2
2015-Mar-24 10:33N 34°37' E 135°25'0 0.1
2015-Mar-24 09:30N 34°37' E 135°25'0 0.0
2015-Mar-24 08:30N 34°37' E 135°25'0 0.0
2015-Mar-24 07:30N 34°37' E 135°25'0 0.0
2015-Mar-24 06:30N 34°37' E 135°25'0 0.0
2015-Mar-24 05:24N 34°37' E 135°25'0 0.0
2015-Mar-24 04:30N 34°37' E 135°25'0 0.0
2015-Mar-24 03:30N 34°37' E 135°25'0 0.0
2015-Mar-24 02:30N 34°37' E 135°25'0 0.0
2015-Mar-24 01:33N 34°37' E 135°25'1312.6
2015-Mar-24 00:33N 34°30' E 135°12'2019.6
2015-Mar-23 23:34N 34°14' E 134°58'2120.1
2015-Mar-23 22:30N 33°53' E 134°58'23016.4
2015-Mar-23 08:25N 34°56' E 139°27'1619.0
2015-Mar-23 07:33N 35°06' E 139°43'1413.8
2015-Mar-23 06:34N 35°20' E 139°43'1514.9
2015-Mar-23 05:33N 35°34' E 139°50'6 5.1
2015-Mar-23 04:28N 35°38' E 139°46'0 0.0
2015-Mar-23 03:28N 35°38' E 139°46'0 0.0
2015-Mar-23 02:28N 35°38' E 139°46'0 0.0
2015-Mar-23 01:31N 35°38' E 139°46'0 0.0
2015-Mar-23 00:28N 35°38' E 139°46'0 0.0
2015-Mar-22 23:28N 35°38' E 139°46'0 0.0
2015-Mar-22 22:29N 35°38' E 139°46'6 6.0
2015-Mar-22 21:33N 35°34' E 139°50'1313.0
2015-Mar-22 20:34N 35°21' E 139°45'1212.3
2015-Mar-22 19:34N 35°09' E 139°47'1514.7
2015-Mar-22 18:33N 34°54' E 139°45'1515.4
2015-Mar-22 17:33N 34°54' E 140°04'1818.3
2015-Mar-22 16:33N 35°04' E 140°22'1818.0
2015-Mar-22 15:32N 35°17' E 140°38'1818.5
2015-Mar-22 14:33N 35°32' E 140°51'1918.7
2015-Mar-22 13:33N 35°49' E 141°01'  
2015-Mar-18 12:33N 34°54' E 139°46'1918.7
2015-Mar-18 11:33N 35°13' E 139°46'1312.9
2015-Mar-18 10:33N 35°26' E 139°45'1211.9
2015-Mar-18 09:33N 35°38' E 139°46'0 0.1
2015-Mar-18 06:18N 35°38' E 139°46'0 0.0
2015-Mar-18 04:09N 35°38' E 139°46'711.1
2015-Mar-18 03:34N 35°33' E 139°51'1414.5
2015-Mar-18 02:34N 35°20' E 139°44'1514.5
2015-Mar-18 01:33N 35°05' E 139°45'24517.5
2015-Mar-17 11:31N 33°58' E 134°58'1920.1
2015-Mar-17 10:33N 34°18' E 134°58'1919.0
2015-Mar-17 09:33N 34°31' E 135°14'1010.2
2015-Mar-17 08:33N 34°37' E 135°25'0 0.0
2015-Mar-17 07:21N 34°37' E 135°25'0 0.0
2015-Mar-17 06:03N 34°37' E 135°25'0 0.0
2015-Mar-17 05:21N 34°37' E 135°25'0 0.0
2015-Mar-17 04:27N 34°37' E 135°25'0 0.0
2015-Mar-17 03:33N 34°37' E 135°25'0 0.0
2015-Mar-17 02:33N 34°37' E 135°25'0 0.0
2015-Mar-17 01:33N 34°37' E 135°25'0 0.0
2015-Mar-17 00:33N 34°37' E 135°25'1211.9
2015-Mar-16 23:33N 34°30' E 135°13'1616.5
2015-Mar-16 22:34N 34°18' E 134°59'1716.6
2015-Mar-16 21:33N 34°01' E 134°59'23115.4
2015-Mar-16 06:33N 34°59' E 139°30'1918.6
2015-Mar-16 05:33N 35°13' E 139°46'1212.5
2015-Mar-16 04:33N 35°25' E 139°44'1211.7
2015-Mar-16 03:33N 35°37' E 139°46'1 0.3
2015-Mar-15 22:29N 35°38' E 139°46'6 6.6
2015-Mar-15 21:33N 35°33' E 139°51'1312.6
2015-Mar-15 20:33N 35°21' E 139°45'1111.4
2015-Mar-15 19:33N 35°10' E 139°47'  

Dump ship's entire track history